createdAt,value
2022-09-05T00:02:33.455Z,15.34
2022-09-05T00:05:26.233Z,15.33
2022-09-05T00:08:03.534Z,15.35
2022-09-05T00:11:39.601Z,15.34
2022-09-05T00:13:33.388Z,15.28
2022-09-05T00:16:30.307Z,15.20
2022-09-05T00:23:38.686Z,15.15
2022-09-05T00:24:29.812Z,15.19
2022-09-05T00:25:32.298Z,15.22
2022-09-05T00:28:26.100Z,15.18
2022-09-05T00:31:56.141Z,15.14
2022-09-05T00:34:47.465Z,15.09
2022-09-05T00:37:31.980Z,15.03
2022-09-05T00:40:18.999Z,14.97
2022-09-05T00:42:51.127Z,14.97
2022-09-05T00:45:27.359Z,14.92
2022-09-05T00:48:04.615Z,14.94
2022-09-05T00:50:43.233Z,14.93
2022-09-05T00:53:19.550Z,14.93
2022-09-05T00:55:59.010Z,14.88
2022-09-05T00:58:52.119Z,14.88
2022-09-05T01:01:31.714Z,14.89
2022-09-05T01:04:20.463Z,14.87
2022-09-05T01:07:07.894Z,14.87
2022-09-05T01:09:48.963Z,14.86
2022-09-05T01:12:32.714Z,14.81
2022-09-05T01:15:32.101Z,14.75
2022-09-05T01:18:22.793Z,14.73
2022-09-05T01:21:18.936Z,14.68
2022-09-05T01:24:17.512Z,14.60
2022-09-05T01:27:56.216Z,14.54
2022-09-05T01:30:36.832Z,14.51
2022-09-05T01:33:20.307Z,14.49
2022-09-05T01:36:33.673Z,14.46
2022-09-05T01:39:55.133Z,14.41
2022-09-05T01:42:06.093Z,14.42
2022-09-05T01:44:48.262Z,14.40
2022-09-05T01:47:29.409Z,14.38
2022-09-05T01:50:10.533Z,14.39
2022-09-05T01:53:04.146Z,14.38
2022-09-05T01:56:04.421Z,14.42
2022-09-05T01:58:47.762Z,14.46
2022-09-05T02:01:32.567Z,14.51
2022-09-05T02:04:29.038Z,14.58
2022-09-05T02:07:20.025Z,14.63
2022-09-05T02:10:32.038Z,14.60
2022-09-05T02:13:12.407Z,14.56
2022-09-05T02:15:59.450Z,14.55
2022-09-05T02:18:47.437Z,14.53
2022-09-05T02:21:25.248Z,14.49
2022-09-05T02:24:03.775Z,14.46
2022-09-05T02:26:35.695Z,14.43
2022-09-05T02:29:13.022Z,14.36
2022-09-05T02:32:04.286Z,14.29
2022-09-05T02:34:42.459Z,14.25
2022-09-05T02:37:33.760Z,14.20
2022-09-05T02:45:01.379Z,14.18
2022-09-05T02:45:07.126Z,14.15
2022-09-05T02:46:15.743Z,14.17
2022-09-05T02:48:55.064Z,14.19
2022-09-05T02:57:25.576Z,14.29
2022-09-05T02:57:34.409Z,14.25
2022-09-05T02:58:07.090Z,14.18
2022-09-05T03:00:28.985Z,14.22
2022-09-05T03:03:15.550Z,14.23
2022-09-05T03:05:52.747Z,14.16
2022-09-05T03:08:45.201Z,14.11
2022-09-05T03:11:54.846Z,14.03
2022-09-05T03:14:34.937Z,13.98
2022-09-05T03:17:41.016Z,13.91
2022-09-05T03:20:51.189Z,13.89
2022-09-05T03:23:48.951Z,13.80
2022-09-05T03:26:38.652Z,13.71
2022-09-05T03:29:30.535Z,13.67
2022-09-05T03:32:19.292Z,13.71
2022-09-05T03:35:26.539Z,13.74
2022-09-05T03:38:12.245Z,13.70
2022-09-05T03:41:05.725Z,13.72
2022-09-05T03:43:58.044Z,13.73
2022-09-05T03:46:47.355Z,13.71
2022-09-05T03:52:27.418Z,13.66
2022-09-05T03:57:19.158Z,13.67
2022-09-05T03:57:23.589Z,13.66
2022-09-05T03:58:56.861Z,13.61
2022-09-05T04:04:14.279Z,13.56
2022-09-05T04:08:13.433Z,13.52
2022-09-05T04:08:19.032Z,13.44
2022-09-05T04:10:27.537Z,13.37
2022-09-05T04:13:01.899Z,13.33
2022-09-05T04:15:38.747Z,13.37
2022-09-05T04:18:33.336Z,13.32
2022-09-05T04:21:09.343Z,13.37
2022-09-05T04:23:53.816Z,13.31
2022-09-05T04:26:45.067Z,13.31
2022-09-05T04:29:23.981Z,13.27
2022-09-05T04:32:07.487Z,13.29
2022-09-05T04:35:07.820Z,13.27
2022-09-05T04:37:48.613Z,13.30
2022-09-05T04:40:58.314Z,13.31
2022-09-05T04:43:32.257Z,13.30
2022-09-05T04:46:10.182Z,13.31
2022-09-05T04:48:47.234Z,13.41
2022-09-05T04:51:44.137Z,13.53
2022-09-05T04:54:30.507Z,13.76
2022-09-05T04:57:13.918Z,14.16
2022-09-05T05:06:05.088Z,14.40
2022-09-05T05:06:15.297Z,14.32
2022-09-05T05:06:17.346Z,14.20
2022-09-05T05:08:38.675Z,14.16
2022-09-05T05:16:17.273Z,14.19
2022-09-05T05:17:58.023Z,14.31
2022-09-05T05:18:15.637Z,14.61
2022-09-05T05:20:40.190Z,14.57
2022-09-05T05:23:07.570Z,14.63
2022-09-05T05:25:48.495Z,14.72
2022-09-05T05:28:26.613Z,14.77
2022-09-05T05:31:01.160Z,14.80
2022-09-05T05:33:34.627Z,14.87
2022-09-05T05:36:07.925Z,14.92
2022-09-05T05:38:46.493Z,15.08
2022-09-05T05:41:22.146Z,15.04
2022-09-05T05:43:51.937Z,15.14
2022-09-05T05:46:31.669Z,15.14
2022-09-05T05:49:27.366Z,15.16
2022-09-05T05:52:13.587Z,15.29
2022-09-05T05:54:51.983Z,15.38
2022-09-05T05:57:59.161Z,15.40
2022-09-05T06:00:52.085Z,15.59
2022-09-05T06:03:47.088Z,15.99
2022-09-05T06:06:24.803Z,16.14
2022-09-05T06:14:52.457Z,16.18
2022-09-05T06:15:00.009Z,16.28
2022-09-05T06:16:49.658Z,16.71
2022-09-05T06:22:04.793Z,16.91
2022-09-05T06:23:45.167Z,17.04
2022-09-05T06:26:40.899Z,17.35
2022-09-05T06:29:34.561Z,17.51
2022-09-05T06:32:24.286Z,17.71
2022-09-05T06:35:13.704Z,17.77
2022-09-05T06:37:52.251Z,17.98
2022-09-05T06:40:31.496Z,18.19
2022-09-05T06:43:23.082Z,18.37
2022-09-05T06:46:15.920Z,18.76
2022-09-05T06:49:30.703Z,18.96
2022-09-05T06:52:37.099Z,19.45
2022-09-05T06:55:37.470Z,19.75
2022-09-05T06:58:43.627Z,19.83
2022-09-05T07:01:17.001Z,19.75
2022-09-05T07:05:14.791Z,19.80
2022-09-05T07:07:07.260Z,19.73
2022-09-05T07:09:57.388Z,19.79
2022-09-05T07:12:30.238Z,20.35
2022-09-05T07:15:13.916Z,20.88
2022-09-05T07:18:10.042Z,20.87
2022-09-05T07:21:16.481Z,21.41
2022-09-05T07:24:06.752Z,21.80
2022-09-05T07:26:52.652Z,21.93
2022-09-05T07:29:27.975Z,22.11
2022-09-05T07:31:57.541Z,21.99
2022-09-05T07:34:29.270Z,22.00
2022-09-05T07:37:15.877Z,21.87
2022-09-05T07:39:51.560Z,22.32
2022-09-05T07:42:32.742Z,22.50
2022-09-05T07:45:08.464Z,22.37
2022-09-05T07:47:40.296Z,22.33
2022-09-05T07:52:23.502Z,22.71
2022-09-05T07:56:50.434Z,22.36
2022-09-05T07:56:58.568Z,22.36
2022-09-05T07:58:49.705Z,23.20
2022-09-05T08:01:20.305Z,23.34
2022-09-05T08:03:55.918Z,23.62
2022-09-05T08:07:20.195Z,23.61
2022-09-05T08:10:06.979Z,23.66
2022-09-05T08:12:11.612Z,23.65
2022-09-05T08:14:52.719Z,24.28
2022-09-05T08:17:29.883Z,25.10
2022-09-05T08:20:21.656Z,25.24
2022-09-05T08:23:00.093Z,25.50
2022-09-05T08:25:38.917Z,25.48
2022-09-05T08:28:39.253Z,25.77
2022-09-05T08:31:14.305Z,25.67
2022-09-05T08:33:44.043Z,25.75
2022-09-05T08:36:17.273Z,25.58
2022-09-05T08:38:47.100Z,25.61
2022-09-05T08:41:46.441Z,26.54
2022-09-05T08:46:40.343Z,25.38
2022-09-05T08:47:19.357Z,26.36
2022-09-05T08:50:02.707Z,27.09
2022-09-05T08:52:45.288Z,26.87
2022-09-05T08:55:22.640Z,26.98
2022-09-05T08:58:10.624Z,27.56
2022-09-05T09:00:55.172Z,27.42
2022-09-05T09:03:31.107Z,27.93
2022-09-05T09:06:29.949Z,27.96
2022-09-05T09:09:12.347Z,28.30
2022-09-05T09:11:45.978Z,28.84
2022-09-05T09:14:41.470Z,29.08
2022-09-05T09:17:22.602Z,29.06
2022-09-05T09:20:04.312Z,28.51
2022-09-05T09:22:41.716Z,29.17
2022-09-05T09:25:16.127Z,29.94
2022-09-05T09:28:49.464Z,29.74
2022-09-05T09:31:14.724Z,29.82
2022-09-05T09:33:49.305Z,30.26
2022-09-05T09:36:49.132Z,30.05
2022-09-05T09:39:39.286Z,29.85
2022-09-05T09:42:32.717Z,29.47
2022-09-05T09:45:28.633Z,28.88
2022-09-05T09:48:20.847Z,28.37
2022-09-05T09:51:06.518Z,27.75
2022-09-05T09:53:49.449Z,28.22
2022-09-05T09:56:34.409Z,28.14
2022-09-05T09:59:20.135Z,27.84
2022-09-05T10:02:29.122Z,27.76
2022-09-05T10:09:52.525Z,27.78
2022-09-05T10:10:59.081Z,29.00
2022-09-05T10:14:49.125Z,29.75
2022-09-05T10:17:51.707Z,30.31
2022-09-05T10:21:15.406Z,29.80
2022-09-05T10:24:18.012Z,29.69
2022-09-05T10:27:27.470Z,30.07
2022-09-05T10:30:12.875Z,30.93
2022-09-05T10:35:10.838Z,29.98
2022-09-05T10:35:43.975Z,31.01
2022-09-05T10:38:17.796Z,31.57
2022-09-05T10:41:21.641Z,30.57
2022-09-05T10:43:50.158Z,31.55
2022-09-05T10:46:51.279Z,30.85
2022-09-05T10:49:27.014Z,30.98
2022-09-05T10:52:18.034Z,30.48
2022-09-05T10:55:14.809Z,31.53
2022-09-05T10:57:57.471Z,32.24
2022-09-05T11:02:16.482Z,33.32
2022-09-05T11:03:45.625Z,32.09
2022-09-05T11:06:24.825Z,30.96
2022-09-05T11:09:07.623Z,31.38
2022-09-05T11:11:46.071Z,32.00
2022-09-05T11:14:36.451Z,32.91
2022-09-05T11:17:16.396Z,32.61
2022-09-05T11:19:46.524Z,33.26
2022-09-05T11:22:23.625Z,33.46
2022-09-05T11:24:56.850Z,32.28
2022-09-05T11:27:33.354Z,32.37
2022-09-05T11:30:06.693Z,32.20
2022-09-05T11:39:51.960Z,33.16
2022-09-05T11:39:52.702Z,33.89
2022-09-05T11:40:10.152Z,33.45
2022-09-05T11:42:21.594Z,32.78
2022-09-05T11:45:28.013Z,33.37
2022-09-05T11:48:26.363Z,34.14
2022-09-05T11:51:33.854Z,32.81
2022-09-05T11:54:46.535Z,32.88
2022-09-05T11:57:35.031Z,32.97
2022-09-05T12:00:33.390Z,33.92
2022-09-05T12:03:57.044Z,33.33
2022-09-05T12:06:37.529Z,32.51
2022-09-05T12:09:24.560Z,32.91
2022-09-05T12:12:18.591Z,33.14
2022-09-05T12:15:11.832Z,32.65
2022-09-05T12:17:51.993Z,33.23
2022-09-05T12:20:29.339Z,32.93
2022-09-05T12:23:02.486Z,33.26
2022-09-05T12:27:39.513Z,33.73
2022-09-05T12:29:26.563Z,33.22
2022-09-05T12:33:32.804Z,33.17
2022-09-05T12:36:07.679Z,33.48
2022-09-05T12:41:32.268Z,33.66
2022-09-05T12:41:35.805Z,32.66
2022-09-05T12:44:36.981Z,33.00
2022-09-05T12:45:57.193Z,33.53
2022-09-05T12:48:38.514Z,32.99
2022-09-05T12:51:11.042Z,33.27
2022-09-05T12:53:45.028Z,33.16
2022-09-05T12:58:34.711Z,33.14
2022-09-05T13:03:05.723Z,31.95
2022-09-05T13:03:05.818Z,33.12
2022-09-05T13:05:10.271Z,32.45
2022-09-05T13:07:42.816Z,32.93
2022-09-05T13:12:51.277Z,33.45
2022-09-05T13:14:58.749Z,33.50
2022-09-05T13:16:03.410Z,34.02
2022-09-05T13:18:40.113Z,34.40
2022-09-05T13:21:13.271Z,34.44
2022-09-05T13:23:50.546Z,35.28
2022-09-05T13:26:25.332Z,35.19
2022-09-05T13:29:09.790Z,34.64
2022-09-05T13:38:02.935Z,34.10
2022-09-05T13:38:11.508Z,34.50
2022-09-05T13:38:12.465Z,35.21
2022-09-05T13:40:40.430Z,35.16
2022-09-05T13:43:11.792Z,34.76
2022-09-05T13:46:03.429Z,35.75
2022-09-05T13:51:37.871Z,34.56
2022-09-05T13:54:28.042Z,34.39
2022-09-05T13:57:17.068Z,34.94
2022-09-05T14:00:38.254Z,34.95
2022-09-05T14:04:00.596Z,35.41
2022-09-05T14:07:44.098Z,35.12
2022-09-05T14:10:03.080Z,34.82
2022-09-05T14:12:39.289Z,33.59
2022-09-05T14:15:27.122Z,32.19
2022-09-05T14:18:20.361Z,32.44
2022-09-05T14:21:11.883Z,34.00
2022-09-05T14:23:53.490Z,34.38
2022-09-05T14:26:28.459Z,34.14
2022-09-05T14:29:05.081Z,34.52
2022-09-05T14:37:38.656Z,33.84
2022-09-05T14:37:43.109Z,34.26
2022-09-05T14:38:09.278Z,34.96
2022-09-05T14:41:28.377Z,35.52
2022-09-05T14:44:20.291Z,35.60
2022-09-05T14:47:07.326Z,35.75
2022-09-05T14:50:07.133Z,34.67
2022-09-05T14:52:43.510Z,34.61
2022-09-05T15:02:43.096Z,34.65
2022-09-05T15:02:54.799Z,34.49
2022-09-05T15:06:37.804Z,33.96
2022-09-05T15:12:18.011Z,33.70
2022-09-05T15:12:27.593Z,32.97
2022-09-05T15:14:56.012Z,32.98
2022-09-05T15:17:26.882Z,33.46
2022-09-05T15:20:05.882Z,33.38
2022-09-05T15:22:37.645Z,32.69
2022-09-05T15:25:18.510Z,32.80
2022-09-05T15:27:47.962Z,32.88
2022-09-05T15:30:20.460Z,32.85
2022-09-05T15:32:50.520Z,32.55
2022-09-05T15:35:37.533Z,32.24
2022-09-05T15:38:21.859Z,31.87
2022-09-05T15:41:03.780Z,31.65
2022-09-05T15:43:32.001Z,31.63
2022-09-05T15:46:04.009Z,30.96
2022-09-05T15:48:36.176Z,30.87
2022-09-05T15:51:18.370Z,30.52
2022-09-05T15:53:52.195Z,30.30
2022-09-05T15:56:25.118Z,30.13
2022-09-05T15:58:56.938Z,30.18
2022-09-05T16:01:52.339Z,30.20
2022-09-05T16:10:31.079Z,30.21
2022-09-05T16:10:35.227Z,29.84
2022-09-05T16:10:48.477Z,29.90
2022-09-05T16:13:00.113Z,29.55
2022-09-05T16:18:10.372Z,29.46
2022-09-05T16:23:24.296Z,29.12
2022-09-05T16:23:28.089Z,29.07
2022-09-05T16:24:15.806Z,29.21
2022-09-05T16:26:51.173Z,28.94
2022-09-05T16:29:26.490Z,28.88
2022-09-05T16:32:11.073Z,28.82
2022-09-05T16:34:47.152Z,28.60
2022-09-05T16:37:20.207Z,28.48
2022-09-05T16:39:53.299Z,28.37
2022-09-05T16:42:46.936Z,28.21
2022-09-05T16:45:33.572Z,28.07
2022-09-05T16:48:26.085Z,27.97
2022-09-05T16:51:15.052Z,27.87
2022-09-05T16:53:58.966Z,27.77
2022-09-05T16:56:34.764Z,27.73
2022-09-05T16:59:08.086Z,27.50
2022-09-05T17:02:05.691Z,27.33
2022-09-05T17:05:02.974Z,27.15
2022-09-05T17:07:49.737Z,26.91
2022-09-05T17:10:20.430Z,26.68
2022-09-05T17:12:52.251Z,26.52
2022-09-05T17:15:26.099Z,26.38
2022-09-05T17:18:21.939Z,26.23
2022-09-05T17:20:51.391Z,25.99
2022-09-05T17:29:16.980Z,25.79
2022-09-05T17:29:26.024Z,25.56
2022-09-05T17:29:50.490Z,25.30
2022-09-05T17:32:04.421Z,25.05
2022-09-05T17:34:47.819Z,24.82
2022-09-05T17:37:41.675Z,24.59
2022-09-05T17:40:45.387Z,24.39
2022-09-05T17:43:28.697Z,24.16
2022-09-05T17:46:13.695Z,23.93
2022-09-05T17:49:20.048Z,23.73
2022-09-05T17:52:18.090Z,23.40
2022-09-05T17:54:49.930Z,23.16
2022-09-05T17:57:50.297Z,22.95
2022-09-05T18:01:01.184Z,22.80
2022-09-05T18:04:17.322Z,22.63
2022-09-05T18:06:58.894Z,22.53
2022-09-05T18:10:03.514Z,22.43
2022-09-05T18:13:31.331Z,22.43
2022-09-05T18:16:11.508Z,22.28
2022-09-05T18:21:48.249Z,22.05
2022-09-05T18:24:24.316Z,21.93
2022-09-05T18:26:56.049Z,21.89
2022-09-05T18:29:58.125Z,22.15
2022-09-05T18:32:41.697Z,22.11
2022-09-05T18:35:36.532Z,22.23
2022-09-05T18:38:51.736Z,22.17
2022-09-05T18:41:20.786Z,21.98
2022-09-05T18:44:14.091Z,21.82
2022-09-05T18:46:49.190Z,21.65
2022-09-05T18:50:21.591Z,21.47
2022-09-05T18:52:23.816Z,21.48
2022-09-05T18:56:11.617Z,21.51
2022-09-05T18:57:49.738Z,21.55
2022-09-05T19:00:33.333Z,21.46
2022-09-05T19:03:24.785Z,21.41
2022-09-05T19:06:34.969Z,21.36
2022-09-05T19:08:53.595Z,21.26
2022-09-05T19:11:28.387Z,21.31
2022-09-05T19:14:25.362Z,21.39
2022-09-05T19:16:49.658Z,21.25
2022-09-05T19:19:24.330Z,21.23
2022-09-05T19:22:45.161Z,21.29
2022-09-05T19:24:46.482Z,21.17
2022-09-05T19:30:48.968Z,21.18
2022-09-05T19:36:47.059Z,21.09
2022-09-05T19:37:03.966Z,21.04
2022-09-05T19:37:13.089Z,20.99
2022-09-05T19:39:36.248Z,20.99
2022-09-05T19:47:28.823Z,20.84
2022-09-05T19:47:40.431Z,20.65
2022-09-05T19:47:56.657Z,20.58
2022-09-05T19:50:20.697Z,20.61
2022-09-05T19:52:52.872Z,20.57
2022-09-05T19:55:24.685Z,20.70
2022-09-05T19:58:19.498Z,20.62
2022-09-05T20:00:49.024Z,20.51
2022-09-05T20:03:39.587Z,20.60
2022-09-05T20:06:29.041Z,20.51
2022-09-05T20:09:10.937Z,20.38
2022-09-05T20:11:46.282Z,20.40
2022-09-05T20:14:23.898Z,20.46
2022-09-05T20:16:55.966Z,20.43
2022-09-05T20:19:28.767Z,20.49
2022-09-05T20:22:14.301Z,20.61
2022-09-05T20:24:49.114Z,20.43
2022-09-05T20:27:18.848Z,20.42
2022-09-05T20:29:55.708Z,20.44
2022-09-05T20:32:38.973Z,20.28
2022-09-05T20:40:06.786Z,20.10
2022-09-05T20:43:16.799Z,20.13
2022-09-05T20:43:31.861Z,20.13
2022-09-05T20:43:57.571Z,20.07
2022-09-05T20:48:26.712Z,19.93
2022-09-05T20:54:08.045Z,19.85
2022-09-05T20:54:12.982Z,19.87
2022-09-05T20:55:38.293Z,19.90
2022-09-05T20:57:50.762Z,19.89
2022-09-05T21:00:23.307Z,19.79
2022-09-05T21:02:54.589Z,19.73
2022-09-05T21:05:29.763Z,19.69
2022-09-05T21:08:25.796Z,19.69
2022-09-05T21:10:56.527Z,19.73
2022-09-05T21:13:27.519Z,19.66
2022-09-05T21:15:57.852Z,19.65
2022-09-05T21:18:33.408Z,19.58
2022-09-05T21:21:28.655Z,19.49
2022-09-05T21:24:15.938Z,19.41
2022-09-05T21:26:45.371Z,19.28
2022-09-05T21:29:17.429Z,19.23
2022-09-05T21:31:54.906Z,19.21
2022-09-05T21:34:27.950Z,19.35
2022-09-05T21:37:06.621Z,19.47
2022-09-05T21:39:40.141Z,19.62
2022-09-05T21:45:35.368Z,19.58
2022-09-05T21:47:40.213Z,19.41
2022-09-05T21:47:53.728Z,19.48
2022-09-05T21:50:31.618Z,19.43
2022-09-05T21:54:28.029Z,19.30
2022-09-05T21:59:22.792Z,19.22
2022-09-05T21:59:27.448Z,19.13
2022-09-05T22:01:37.507Z,19.03
2022-09-05T22:04:21.664Z,18.94
2022-09-05T22:06:50.149Z,18.88
2022-09-05T22:09:19.031Z,18.82
2022-09-05T22:11:50.151Z,18.80
2022-09-05T22:14:19.156Z,18.73
2022-09-05T22:16:50.332Z,18.60
2022-09-05T22:19:26.201Z,18.50
2022-09-05T22:22:15.435Z,18.34
2022-09-05T22:24:47.136Z,18.31
2022-09-05T22:27:15.580Z,18.28
2022-09-05T22:29:44.851Z,18.25
2022-09-05T22:32:17.030Z,18.22
2022-09-05T22:34:55.531Z,18.14
2022-09-05T22:37:23.619Z,18.08
2022-09-05T22:39:51.748Z,18.02
2022-09-05T22:42:19.909Z,17.99
2022-09-05T22:44:48.081Z,18.05
2022-09-05T22:47:16.053Z,18.17
2022-09-05T22:49:44.100Z,18.22
2022-09-05T22:52:13.591Z,18.25
2022-09-05T22:54:41.679Z,18.25
2022-09-05T22:57:09.664Z,18.30
2022-09-05T22:59:37.722Z,18.36
2022-09-05T23:02:05.767Z,18.38
2022-09-05T23:04:33.942Z,18.42
2022-09-05T23:07:03.339Z,18.33
2022-09-05T23:09:32.644Z,18.32
2022-09-05T23:12:01.195Z,18.24
2022-09-05T23:14:29.249Z,18.25
2022-09-05T23:16:57.290Z,18.24
2022-09-05T23:19:25.407Z,18.20
2022-09-05T23:21:53.498Z,18.22
2022-09-05T23:24:21.807Z,18.22
2022-09-05T23:26:51.131Z,18.20
2022-09-05T23:29:19.131Z,18.17
2022-09-05T23:31:47.633Z,18.13
2022-09-05T23:34:15.568Z,18.03
2022-09-05T23:36:43.602Z,17.92
2022-09-05T23:39:11.744Z,17.83
2022-09-05T23:41:39.760Z,17.75
2022-09-05T23:44:09.149Z,17.66
2022-09-05T23:46:37.825Z,17.59
2022-09-05T23:49:06.051Z,17.58
2022-09-05T23:51:34.064Z,17.55
2022-09-05T23:54:02.141Z,17.47
2022-09-05T23:56:30.223Z,17.43
2022-09-05T23:58:58.203Z,17.38
